Terminal Aerodrome Forecast
Issued by NWS

Home | Current Version | Previous Version | Text Only | Print | Product List | Glossary On
Versions: 1 2 3 4 5 6 7 8 9 10 11 12 13 14 15 16 17 18 19 20 21 22 23 24 25 26
015
FTUS44 KFWD 250520
TAFAFW
TAF
KAFW 250520Z 2506/2606 16011KT P6SM SCT070 OVC150
     FM251000 16012KT P6SM VCTS BKN015 OVC040CB
      TEMPO 2510/2514 3SM TSRA
     FM251600 13008KT P6SM VCSH SCT025 OVC100
     FM252200 01010KT P6SM VCTS BKN040CB OVC100
     FM260300 02012KT P6SM -SHRA OVC040=

USA.gov is the U.S. government's official web portal to all federal, state and local government web resources and services.